Escribe el Código OACI del Aeropuerto

Buscar por Aeropuerto o Ciudad

Información Meteorológica Actual

LERT | US Naval Station Rota[1]

Rota, Andalusia, Spain

Última Actualización Hace 34 Minutos

Cielo Despejado

14 ºC de Temperatura

Vientos Moderados del Oeste

Temperatura

14 ºC

Temperatura del Punto de Rocío

09 ºC

Humedad Relativa

71.95 %

Dirección del Viento

Oeste (260º, Sin Variaciones de Consideración)

Velocidad del Viento

19 km/h (10 kt)

Ráfagas

No Hay

Visibilidad

Sin Reducciones de Consideración

Presión Reducida a Nivel del Mar

1023 hPa (Hectopascales)

Capas de Nubes

No Hay

METAR LERT 071430Z 26010KT CAVOK 14/09 Q1023 NOSIG

Pronóstico Meteorológico

LERT | US Naval Station Rota[1]

Rota, Andalusia, Spain

Pronóstico válido para las próximas 24 Horas

A partir de este momento se espera:

Cielo Despejado

Vientos Leves a Moderados del Oeste

En 5 horas se espera el comienzo de 12 horas con períodos intermitentes de:

Lluvia, Neblina

En 12 a 14 horas se espera el comienzo de:

Vientos Moderados del NorOeste

Temperatura Máxima

17 ºC en 0 Horas

Temperatura Mínima

11 ºC en 16 Horas

TAF LERT 071400Z 0715/0815 25008KT CAVOK TX17/0715Z TN11/0807Z PROB40 TEMPO 0720/0808 4000 RA BR BKN012 BECMG 0803/0805 33012KT